LXR weather

Luxor International Airport
Luxor, Qena Governorate, Egypt

Public forecast

Using degrees Celsius for public forecast. Weather courtesy of forecast.io.

Current aviation weather report (METAR) for Luxor International Airport

Retrieved 2019/12/08 00:00 UTC (12 minutes ago):

HELX 080000Z 00000KT CAVOK 15/07 Q1018 NOSIG

Aviation forecast (TAF) for Luxor International Airport

Retrieved 2019-12-08 00:40 UTC (0 seconds ago):

TAF HELX 072320Z 0800/0906 32008KT CAVOK